sensor_id;sensor_type;location;lat;lon;timestamp;P1;durP1;ratioP1;P2;durP2;ratioP2
33270;SDS011;53180;51.344;6.152;2023-03-13T00:01:19;7.85;;;2.00;;
33270;SDS011;53180;51.344;6.152;2023-03-13T00:03:50;4.65;;;1.50;;
33270;SDS011;53180;51.344;6.152;2023-03-13T00:06:20;3.00;;;1.70;;
33270;SDS011;53180;51.344;6.152;2023-03-13T00:08:50;4.05;;;1.52;;
33270;SDS011;53180;51.344;6.152;2023-03-13T00:11:18;13.98;;;1.92;;
33270;SDS011;53180;51.344;6.152;2023-03-13T00:13:46;3.63;;;1.60;;
33270;SDS011;53180;51.344;6.152;2023-03-13T00:16:16;2.85;;;1.30;;
33270;SDS011;53180;51.344;6.152;2023-03-13T00:18:44;3.33;;;1.63;;
33270;SDS011;53180;51.344;6.152;2023-03-13T00:21:13;5.43;;;1.55;;
33270;SDS011;53180;51.344;6.152;2023-03-13T00:23:43;7.60;;;1.50;;
33270;SDS011;53180;51.344;6.152;2023-03-13T00:26:13;3.80;;;1.60;;
33270;SDS011;53180;51.344;6.152;2023-03-13T00:28:43;7.70;;;1.40;;
33270;SDS011;53180;51.344;6.152;2023-03-13T00:31:12;3.80;;;1.38;;
33270;SDS011;53180;51.344;6.152;2023-03-13T00:33:46;4.07;;;1.75;;
33270;SDS011;53180;51.344;6.152;2023-03-13T00:36:18;5.10;;;1.58;;
33270;SDS011;53180;51.344;6.152;2023-03-13T00:41:16;4.93;;;1.58;;
33270;SDS011;53180;51.344;6.152;2023-03-13T00:43:47;2.65;;;1.52;;
33270;SDS011;53180;51.344;6.152;2023-03-13T00:46:18;5.05;;;1.80;;
33270;SDS011;53180;51.344;6.152;2023-03-13T00:48:49;3.33;;;1.70;;
33270;SDS011;53180;51.344;6.152;2023-03-13T00:51:18;2.67;;;1.80;;
33270;SDS011;53180;51.344;6.152;2023-03-13T00:53:49;3.55;;;1.67;;
33270;SDS011;53180;51.344;6.152;2023-03-13T00:56:17;7.00;;;1.80;;
33270;SDS011;53180;51.344;6.152;2023-03-13T00:58:47;1.70;;;1.20;;
33270;SDS011;53180;51.344;6.152;2023-03-13T01:01:18;5.55;;;1.92;;
33270;SDS011;53180;51.344;6.152;2023-03-13T01:03:50;3.15;;;1.67;;
33270;SDS011;53180;51.344;6.152;2023-03-13T01:06:20;2.20;;;1.55;;
33270;SDS011;53180;51.344;6.152;2023-03-13T01:08:50;2.17;;;1.50;;
33270;SDS011;53180;51.344;6.152;2023-03-13T01:11:19;1.52;;;1.38;;
33270;SDS011;53180;51.344;6.152;2023-03-13T01:16:22;2.97;;;1.67;;
33270;SDS011;53180;51.344;6.152;2023-03-13T01:18:53;4.00;;;1.75;;
33270;SDS011;53180;51.344;6.152;2023-03-13T01:21:23;8.07;;;1.80;;
33270;SDS011;53180;51.344;6.152;2023-03-13T01:23:52;4.25;;;1.65;;
33270;SDS011;53180;51.344;6.152;2023-03-13T01:26:21;3.63;;;1.60;;
33270;SDS011;53180;51.344;6.152;2023-03-13T01:28:50;12.98;;;1.92;;
33270;SDS011;53180;51.344;6.152;2023-03-13T01:31:19;1.58;;;1.40;;
33270;SDS011;53180;51.344;6.152;2023-03-13T01:33:53;2.78;;;1.42;;
33270;SDS011;53180;51.344;6.152;2023-03-13T01:36:23;2.72;;;1.45;;
33270;SDS011;53180;51.344;6.152;2023-03-13T01:38:53;4.88;;;1.90;;
33270;SDS011;53180;51.344;6.152;2023-03-13T01:41:23;4.03;;;1.45;;
33270;SDS011;53180;51.344;6.152;2023-03-13T01:43:52;5.03;;;1.45;;
33270;SDS011;53180;51.344;6.152;2023-03-13T01:46:23;7.45;;;1.75;;
33270;SDS011;53180;51.344;6.152;2023-03-13T01:48:54;3.70;;;1.38;;
33270;SDS011;53180;51.344;6.152;2023-03-13T01:51:27;3.25;;;1.30;;
33270;SDS011;53180;51.344;6.152;2023-03-13T01:54:01;5.32;;;1.73;;
33270;SDS011;53180;51.344;6.152;2023-03-13T01:56:36;5.35;;;1.70;;
33270;SDS011;53180;51.344;6.152;2023-03-13T01:59:10;2.13;;;1.67;;
33270;SDS011;53180;51.344;6.152;2023-03-13T02:01:43;2.28;;;1.60;;
33270;SDS011;53180;51.344;6.152;2023-03-13T02:04:14;4.47;;;1.42;;
33270;SDS011;53180;51.344;6.152;2023-03-13T02:06:43;5.38;;;1.70;;
33270;SDS011;53180;51.344;6.152;2023-03-13T02:09:17;3.90;;;1.40;;
33270;SDS011;53180;51.344;6.152;2023-03-13T02:11:48;1.63;;;1.50;;
33270;SDS011;53180;51.344;6.152;2023-03-13T02:14:24;9.02;;;1.40;;
33270;SDS011;53180;51.344;6.152;2023-03-13T02:16:56;2.38;;;1.30;;
33270;SDS011;53180;51.344;6.152;2023-03-13T02:19:27;5.97;;;1.65;;
33270;SDS011;53180;51.344;6.152;2023-03-13T02:22:04;5.40;;;1.55;;
33270;SDS011;53180;51.344;6.152;2023-03-13T02:24:40;2.20;;;1.30;;
33270;SDS011;53180;51.344;6.152;2023-03-13T02:27:18;2.45;;;1.58;;
33270;SDS011;53180;51.344;6.152;2023-03-13T02:29:46;1.48;;;1.38;;
33270;SDS011;53180;51.344;6.152;2023-03-13T02:32:15;4.93;;;1.65;;
33270;SDS011;53180;51.344;6.152;2023-03-13T02:34:44;4.82;;;2.05;;
33270;SDS011;53180;51.344;6.152;2023-03-13T02:37:19;1.10;;;1.08;;
33270;SDS011;53180;51.344;6.152;2023-03-13T02:39:48;5.97;;;1.50;;
33270;SDS011;53180;51.344;6.152;2023-03-13T02:42:19;1.27;;;1.20;;
33270;SDS011;53180;51.344;6.152;2023-03-13T02:47:18;1.90;;;1.60;;
33270;SDS011;53180;51.344;6.152;2023-03-13T02:49:46;1.65;;;1.38;;
33270;SDS011;53180;51.344;6.152;2023-03-13T02:52:17;1.27;;;1.20;;
33270;SDS011;53180;51.344;6.152;2023-03-13T02:54:50;4.43;;;1.58;;
33270;SDS011;53180;51.344;6.152;2023-03-13T02:57:25;1.90;;;1.50;;
33270;SDS011;53180;51.344;6.152;2023-03-13T02:59:54;1.77;;;1.60;;
33270;SDS011;53180;51.344;6.152;2023-03-13T03:02:22;5.07;;;1.60;;
33270;SDS011;53180;51.344;6.152;2023-03-13T03:04:50;2.60;;;1.52;;
33270;SDS011;53180;51.344;6.152;2023-03-13T03:07:19;2.13;;;1.55;;
33270;SDS011;53180;51.344;6.152;2023-03-13T03:09:47;5.07;;;1.48;;
33270;SDS011;53180;51.344;6.152;2023-03-13T03:12:15;1.85;;;1.42;;
33270;SDS011;53180;51.344;6.152;2023-03-13T03:14:44;2.60;;;1.35;;
33270;SDS011;53180;51.344;6.152;2023-03-13T03:17:13;4.82;;;1.40;;
33270;SDS011;53180;51.344;6.152;2023-03-13T03:19:41;2.03;;;1.42;;
33270;SDS011;53180;51.344;6.152;2023-03-13T03:22:09;1.83;;;1.48;;
33270;SDS011;53180;51.344;6.152;2023-03-13T03:24:37;1.55;;;1.45;;
33270;SDS011;53180;51.344;6.152;2023-03-13T03:27:06;1.60;;;1.50;;
33270;SDS011;53180;51.344;6.152;2023-03-13T03:29:34;2.67;;;1.48;;
33270;SDS011;53180;51.344;6.152;2023-03-13T03:32:03;1.50;;;1.40;;
33270;SDS011;53180;51.344;6.152;2023-03-13T03:34:32;6.80;;;1.30;;
33270;SDS011;53180;51.344;6.152;2023-03-13T03:37:00;5.00;;;1.65;;
33270;SDS011;53180;51.344;6.152;2023-03-13T03:39:29;1.58;;;1.48;;
33270;SDS011;53180;51.344;6.152;2023-03-13T03:41:57;1.40;;;1.30;;
33270;SDS011;53180;51.344;6.152;2023-03-13T03:44:25;1.83;;;1.63;;
33270;SDS011;53180;51.344;6.152;2023-03-13T03:46:53;1.60;;;1.50;;
33270;SDS011;53180;51.344;6.152;2023-03-13T03:49:23;1.70;;;1.60;;
33270;SDS011;53180;51.344;6.152;2023-03-13T03:51:51;1.88;;;1.52;;
33270;SDS011;53180;51.344;6.152;2023-03-13T03:54:19;1.55;;;1.45;;
33270;SDS011;53180;51.344;6.152;2023-03-13T03:56:48;1.63;;;1.52;;
33270;SDS011;53180;51.344;6.152;2023-03-13T03:59:16;1.40;;;1.30;;
33270;SDS011;53180;51.344;6.152;2023-03-13T04:01:44;1.92;;;1.63;;
33270;SDS011;53180;51.344;6.152;2023-03-13T04:04:12;1.73;;;1.20;;
33270;SDS011;53180;51.344;6.152;2023-03-13T04:06:42;2.25;;;1.42;;
33270;SDS011;53180;51.344;6.152;2023-03-13T04:09:10;4.13;;;1.75;;
33270;SDS011;53180;51.344;6.152;2023-03-13T04:11:38;1.55;;;1.45;;
33270;SDS011;53180;51.344;6.152;2023-03-13T04:14:06;1.27;;;1.17;;
33270;SDS011;53180;51.344;6.152;2023-03-13T04:16:35;2.72;;;1.48;;
33270;SDS011;53180;51.344;6.152;2023-03-13T04:19:03;1.60;;;1.50;;
33270;SDS011;53180;51.344;6.152;2023-03-13T04:21:32;7.82;;;1.75;;
33270;SDS011;53180;51.344;6.152;2023-03-13T04:24:02;1.33;;;1.23;;
33270;SDS011;53180;51.344;6.152;2023-03-13T04:26:30;1.27;;;1.17;;
33270;SDS011;53180;51.344;6.152;2023-03-13T04:28:59;1.60;;;1.48;;
33270;SDS011;53180;51.344;6.152;2023-03-13T04:31:27;2.28;;;1.30;;
33270;SDS011;53180;51.344;6.152;2023-03-13T04:33:55;1.55;;;1.42;;
33270;SDS011;53180;51.344;6.152;2023-03-13T04:36:23;1.83;;;1.60;;
33270;SDS011;53180;51.344;6.152;2023-03-13T04:38:51;1.95;;;1.70;;
33270;SDS011;53180;51.344;6.152;2023-03-13T04:41:21;1.60;;;1.40;;
33270;SDS011;53180;51.344;6.152;2023-03-13T04:43:49;2.45;;;1.50;;
33270;SDS011;53180;51.344;6.152;2023-03-13T04:46:17;1.77;;;1.50;;
33270;SDS011;53180;51.344;6.152;2023-03-13T04:48:45;1.92;;;1.60;;
33270;SDS011;53180;51.344;6.152;2023-03-13T04:51:14;2.50;;;1.80;;
33270;SDS011;53180;51.344;6.152;2023-03-13T04:53:42;1.30;;;1.20;;
33270;SDS011;53180;51.344;6.152;2023-03-13T04:56:10;1.52;;;1.42;;
33270;SDS011;53180;51.344;6.152;2023-03-13T04:58:59;1.92;;;1.73;;
33270;SDS011;53180;51.344;6.152;2023-03-13T05:01:27;1.30;;;1.20;;
33270;SDS011;53180;51.344;6.152;2023-03-13T05:03:55;2.13;;;1.73;;
33270;SDS011;53180;51.344;6.152;2023-03-13T05:06:23;2.78;;;1.60;;
33270;SDS011;53180;51.344;6.152;2023-03-13T05:08:52;1.55;;;1.33;;
33270;SDS011;53180;51.344;6.152;2023-03-13T05:11:20;2.10;;;1.30;;
33270;SDS011;53180;51.344;6.152;2023-03-13T05:13:48;2.40;;;1.83;;
33270;SDS011;53180;51.344;6.152;2023-03-13T05:16:18;1.50;;;1.40;;
33270;SDS011;53180;51.344;6.152;2023-03-13T05:18:46;2.10;;;1.25;;
33270;SDS011;53180;51.344;6.152;2023-03-13T05:21:14;1.60;;;1.50;;
33270;SDS011;53180;51.344;6.152;2023-03-13T05:23:42;12.18;;;6.13;;
33270;SDS011;53180;51.344;6.152;2023-03-13T05:26:10;2.72;;;1.45;;
33270;SDS011;53180;51.344;6.152;2023-03-13T05:28:39;4.68;;;1.65;;
33270;SDS011;53180;51.344;6.152;2023-03-13T05:31:07;3.72;;;1.58;;
33270;SDS011;53180;51.344;6.152;2023-03-13T05:33:37;2.22;;;1.60;;
33270;SDS011;53180;51.344;6.152;2023-03-13T05:36:05;1.60;;;1.48;;
33270;SDS011;53180;51.344;6.152;2023-03-13T05:38:34;1.95;;;1.50;;
33270;SDS011;53180;51.344;6.152;2023-03-13T05:41:03;1.60;;;1.38;;
33270;SDS011;53180;51.344;6.152;2023-03-13T05:43:31;1.95;;;1.20;;
33270;SDS011;53180;51.344;6.152;2023-03-13T05:45:59;1.95;;;1.60;;
33270;SDS011;53180;51.344;6.152;2023-03-13T05:48:28;1.77;;;1.30;;
33270;SDS011;53180;51.344;6.152;2023-03-13T05:50:57;1.50;;;1.10;;
33270;SDS011;53180;51.344;6.152;2023-03-13T05:53:25;2.00;;;1.33;;
33270;SDS011;53180;51.344;6.152;2023-03-13T05:55:53;1.95;;;1.70;;
33270;SDS011;53180;51.344;6.152;2023-03-13T05:58:22;1.83;;;1.42;;
33270;SDS011;53180;51.344;6.152;2023-03-13T06:00:50;2.53;;;1.33;;
33270;SDS011;53180;51.344;6.152;2023-03-13T06:03:19;1.42;;;1.33;;
33270;SDS011;53180;51.344;6.152;2023-03-13T06:05:47;1.27;;;1.17;;
33270;SDS011;53180;51.344;6.152;2023-03-13T06:08:18;1.38;;;1.25;;
33270;SDS011;53180;51.344;6.152;2023-03-13T06:10:47;1.37;;;1.27;;
33270;SDS011;53180;51.344;6.152;2023-03-13T06:13:15;2.83;;;1.15;;
33270;SDS011;53180;51.344;6.152;2023-03-13T06:15:49;1.83;;;1.48;;
33270;SDS011;53180;51.344;6.152;2023-03-13T06:18:18;1.50;;;1.40;;
33270;SDS011;53180;51.344;6.152;2023-03-13T06:20:47;1.90;;;1.40;;
33270;SDS011;53180;51.344;6.152;2023-03-13T06:23:15;2.17;;;1.67;;
33270;SDS011;53180;51.344;6.152;2023-03-13T06:25:46;2.35;;;1.38;;
33270;SDS011;53180;51.344;6.152;2023-03-13T06:28:14;2.35;;;1.27;;
33270;SDS011;53180;51.344;6.152;2023-03-13T06:30:43;2.15;;;1.17;;
33270;SDS011;53180;51.344;6.152;2023-03-13T06:33:11;1.02;;;1.00;;
33270;SDS011;53180;51.344;6.152;2023-03-13T06:35:39;1.13;;;1.00;;
33270;SDS011;53180;51.344;6.152;2023-03-13T06:38:23;2.80;;;1.60;;
33270;SDS011;53180;51.344;6.152;2023-03-13T06:40:51;3.38;;;1.30;;
33270;SDS011;53180;51.344;6.152;2023-03-13T06:43:20;2.53;;;1.45;;
33270;SDS011;53180;51.344;6.152;2023-03-13T06:45:48;1.50;;;1.25;;
33270;SDS011;53180;51.344;6.152;2023-03-13T06:48:17;1.92;;;1.38;;
33270;SDS011;53180;51.344;6.152;2023-03-13T06:50:48;1.40;;;1.13;;
33270;SDS011;53180;51.344;6.152;2023-03-13T06:53:17;2.30;;;1.30;;
33270;SDS011;53180;51.344;6.152;2023-03-13T06:55:48;2.20;;;1.40;;
33270;SDS011;53180;51.344;6.152;2023-03-13T06:58:17;1.45;;;1.13;;
33270;SDS011;53180;51.344;6.152;2023-03-13T07:00:57;2.65;;;1.70;;
33270;SDS011;53180;51.344;6.152;2023-03-13T07:03:26;7.88;;;1.50;;
33270;SDS011;53180;51.344;6.152;2023-03-13T07:05:54;1.38;;;1.15;;
33270;SDS011;53180;51.344;6.152;2023-03-13T07:08:23;1.60;;;1.00;;
33270;SDS011;53180;51.344;6.152;2023-03-13T07:10:53;2.60;;;1.35;;
33270;SDS011;53180;51.344;6.152;2023-03-13T07:13:26;2.13;;;1.15;;
33270;SDS011;53180;51.344;6.152;2023-03-13T07:15:55;1.58;;;1.25;;
33270;SDS011;53180;51.344;6.152;2023-03-13T07:20:54;1.15;;;1.05;;
33270;SDS011;53180;51.344;6.152;2023-03-13T07:23:25;3.67;;;1.17;;
33270;SDS011;53180;51.344;6.152;2023-03-13T07:28:26;1.40;;;1.30;;
33270;SDS011;53180;51.344;6.152;2023-03-13T07:31:02;3.70;;;1.40;;
33270;SDS011;53180;51.344;6.152;2023-03-13T07:33:31;2.72;;;1.13;;
33270;SDS011;53180;51.344;6.152;2023-03-13T07:36:00;6.28;;;1.30;;
33270;SDS011;53180;51.344;6.152;2023-03-13T07:38:29;1.95;;;1.15;;
33270;SDS011;53180;51.344;6.152;2023-03-13T07:40:59;1.50;;;1.13;;
33270;SDS011;53180;51.344;6.152;2023-03-13T07:43:27;1.10;;;1.00;;
33270;SDS011;53180;51.344;6.152;2023-03-13T07:45:57;1.42;;;1.15;;
33270;SDS011;53180;51.344;6.152;2023-03-13T07:48:27;3.23;;;1.00;;
33270;SDS011;53180;51.344;6.152;2023-03-13T07:50:57;5.30;;;1.30;;
33270;SDS011;53180;51.344;6.152;2023-03-13T07:53:26;4.43;;;1.27;;
33270;SDS011;53180;51.344;6.152;2023-03-13T07:55:56;2.42;;;1.45;;
33270;SDS011;53180;51.344;6.152;2023-03-13T07:58:28;2.58;;;1.25;;
33270;SDS011;53180;51.344;6.152;2023-03-13T08:00:57;1.25;;;0.93;;
33270;SDS011;53180;51.344;6.152;2023-03-13T08:03:26;1.90;;;1.38;;
33270;SDS011;53180;51.344;6.152;2023-03-13T08:05:58;3.22;;;1.15;;
33270;SDS011;53180;51.344;6.152;2023-03-13T08:08:28;4.03;;;1.13;;
33270;SDS011;53180;51.344;6.152;2023-03-13T08:11:01;6.82;;;1.60;;
33270;SDS011;53180;51.344;6.152;2023-03-13T08:13:32;2.13;;;1.30;;
33270;SDS011;53180;51.344;6.152;2023-03-13T08:16:02;3.10;;;1.10;;
33270;SDS011;53180;51.344;6.152;2023-03-13T08:18:33;2.40;;;1.20;;
33270;SDS011;53180;51.344;6.152;2023-03-13T08:21:03;1.42;;;1.17;;
33270;SDS011;53180;51.344;6.152;2023-03-13T08:26:03;2.63;;;1.25;;
33270;SDS011;53180;51.344;6.152;2023-03-13T08:28:33;1.02;;;0.90;;
33270;SDS011;53180;51.344;6.152;2023-03-13T08:31:06;1.98;;;1.30;;
33270;SDS011;53180;51.344;6.152;2023-03-13T08:33:36;4.50;;;1.10;;
33270;SDS011;53180;51.344;6.152;2023-03-13T08:36:09;2.03;;;0.90;;
33270;SDS011;53180;51.344;6.152;2023-03-13T08:38:40;2.15;;;1.25;;
33270;SDS011;53180;51.344;6.152;2023-03-13T08:41:13;2.42;;;1.30;;
33270;SDS011;53180;51.344;6.152;2023-03-13T08:43:43;2.55;;;1.27;;
33270;SDS011;53180;51.344;6.152;2023-03-13T08:46:13;2.97;;;1.48;;
33270;SDS011;53180;51.344;6.152;2023-03-13T08:48:47;3.42;;;1.20;;
33270;SDS011;53180;51.344;6.152;2023-03-13T08:51:17;3.33;;;1.48;;
33270;SDS011;53180;51.344;6.152;2023-03-13T08:53:47;2.17;;;0.93;;
33270;SDS011;53180;51.344;6.152;2023-03-13T08:56:18;0.80;;;0.80;;
33270;SDS011;53180;51.344;6.152;2023-03-13T08:58:48;1.63;;;1.08;;
33270;SDS011;53180;51.344;6.152;2023-03-13T09:01:17;3.67;;;1.35;;
33270;SDS011;53180;51.344;6.152;2023-03-13T09:03:47;1.48;;;1.00;;
33270;SDS011;53180;51.344;6.152;2023-03-13T09:06:16;5.78;;;1.10;;
33270;SDS011;53180;51.344;6.152;2023-03-13T09:08:45;1.40;;;1.10;;
33270;SDS011;53180;51.344;6.152;2023-03-13T09:11:14;1.40;;;1.10;;
33270;SDS011;53180;51.344;6.152;2023-03-13T09:13:46;3.95;;;1.17;;
33270;SDS011;53180;51.344;6.152;2023-03-13T09:16:17;3.35;;;1.25;;
33270;SDS011;53180;51.344;6.152;2023-03-13T09:18:47;2.20;;;1.20;;
33270;SDS011;53180;51.344;6.152;2023-03-13T09:21:18;2.88;;;1.30;;
33270;SDS011;53180;51.344;6.152;2023-03-13T09:23:47;2.35;;;1.33;;
33270;SDS011;53180;51.344;6.152;2023-03-13T09:26:18;1.50;;;1.17;;
33270;SDS011;53180;51.344;6.152;2023-03-13T09:28:48;1.85;;;1.17;;
33270;SDS011;53180;51.344;6.152;2023-03-13T09:31:18;1.52;;;1.10;;
33270;SDS011;53180;51.344;6.152;2023-03-13T09:33:48;3.55;;;1.25;;
33270;SDS011;53180;51.344;6.152;2023-03-13T09:36:17;2.25;;;1.10;;
33270;SDS011;53180;51.344;6.152;2023-03-13T09:41:21;1.27;;;1.00;;
33270;SDS011;53180;51.344;6.152;2023-03-13T09:43:57;1.85;;;1.40;;
33270;SDS011;53180;51.344;6.152;2023-03-13T09:46:33;3.03;;;1.00;;
33270;SDS011;53180;51.344;6.152;2023-03-13T09:49:09;1.17;;;0.90;;
33270;SDS011;53180;51.344;6.152;2023-03-13T09:51:47;0.90;;;0.80;;
33270;SDS011;53180;51.344;6.152;2023-03-13T09:54:25;3.28;;;0.85;;
33270;SDS011;53180;51.344;6.152;2023-03-13T09:57:04;1.08;;;0.90;;
33270;SDS011;53180;51.344;6.152;2023-03-13T09:59:42;1.85;;;0.98;;
33270;SDS011;53180;51.344;6.152;2023-03-13T10:02:18;1.05;;;0.73;;
33270;SDS011;53180;51.344;6.152;2023-03-13T10:04:55;1.08;;;0.80;;
33270;SDS011;53180;51.344;6.152;2023-03-13T10:07:39;0.82;;;0.68;;
33270;SDS011;53180;51.344;6.152;2023-03-13T10:10:13;0.80;;;0.80;;
33270;SDS011;53180;51.344;6.152;2023-03-13T10:12:46;2.83;;;1.00;;
33270;SDS011;53180;51.344;6.152;2023-03-13T10:15:26;2.75;;;1.15;;
33270;SDS011;53180;51.344;6.152;2023-03-13T10:18:09;0.52;;;0.52;;
33270;SDS011;53180;51.344;6.152;2023-03-13T10:20:43;1.20;;;0.75;;
33270;SDS011;53180;51.344;6.152;2023-03-13T10:23:17;2.50;;;0.90;;
33270;SDS011;53180;51.344;6.152;2023-03-13T10:25:53;0.65;;;0.65;;
33270;SDS011;53180;51.344;6.152;2023-03-13T10:28:23;2.25;;;0.75;;
33270;SDS011;53180;51.344;6.152;2023-03-13T10:30:53;0.90;;;0.70;;
33270;SDS011;53180;51.344;6.152;2023-03-13T10:33:29;0.98;;;0.77;;
33270;SDS011;53180;51.344;6.152;2023-03-13T10:36:03;1.25;;;0.82;;
33270;SDS011;53180;51.344;6.152;2023-03-13T10:38:44;1.25;;;0.57;;
33270;SDS011;53180;51.344;6.152;2023-03-13T10:41:20;2.80;;;0.93;;
33270;SDS011;53180;51.344;6.152;2023-03-13T10:43:59;0.90;;;0.77;;
33270;SDS011;53180;51.344;6.152;2023-03-13T10:46:32;1.90;;;0.88;;
33270;SDS011;53180;51.344;6.152;2023-03-13T10:49:03;3.60;;;1.08;;
33270;SDS011;53180;51.344;6.152;2023-03-13T10:51:44;4.75;;;0.82;;
33270;SDS011;53180;51.344;6.152;2023-03-13T10:54:18;2.13;;;1.08;;
33270;SDS011;53180;51.344;6.152;2023-03-13T10:56:51;0.57;;;0.57;;
33270;SDS011;53180;51.344;6.152;2023-03-13T10:59:39;1.98;;;0.82;;
33270;SDS011;53180;51.344;6.152;2023-03-13T11:02:21;1.30;;;0.60;;
33270;SDS011;53180;51.344;6.152;2023-03-13T11:04:54;0.50;;;0.50;;
33270;SDS011;53180;51.344;6.152;2023-03-13T11:07:26;1.42;;;0.80;;
33270;SDS011;53180;51.344;6.152;2023-03-13T11:09:57;0.60;;;0.60;;
33270;SDS011;53180;51.344;6.152;2023-03-13T11:12:28;3.70;;;1.13;;
33270;SDS011;53180;51.344;6.152;2023-03-13T11:15:02;0.88;;;0.70;;
33270;SDS011;53180;51.344;6.152;2023-03-13T11:17:40;1.40;;;0.70;;
33270;SDS011;53180;51.344;6.152;2023-03-13T11:20:13;0.82;;;0.70;;
33270;SDS011;53180;51.344;6.152;2023-03-13T11:25:25;2.38;;;0.80;;
33270;SDS011;53180;51.344;6.152;2023-03-13T11:28:13;0.65;;;0.60;;
33270;SDS011;53180;51.344;6.152;2023-03-13T11:30:59;0.57;;;0.55;;
33270;SDS011;53180;51.344;6.152;2023-03-13T11:33:37;1.00;;;0.60;;
33270;SDS011;53180;51.344;6.152;2023-03-13T11:36:20;0.40;;;0.40;;
33270;SDS011;53180;51.344;6.152;2023-03-13T11:38:54;2.20;;;0.60;;
33270;SDS011;53180;51.344;6.152;2023-03-13T11:41:38;0.82;;;0.50;;
33270;SDS011;53180;51.344;6.152;2023-03-13T11:44:29;1.60;;;1.05;;
33270;SDS011;53180;51.344;6.152;2023-03-13T11:47:25;2.22;;;1.42;;
33270;SDS011;53180;51.344;6.152;2023-03-13T11:53:11;0.88;;;0.60;;
33270;SDS011;53180;51.344;6.152;2023-03-13T11:55:55;1.00;;;0.50;;
33270;SDS011;53180;51.344;6.152;2023-03-13T11:58:33;0.50;;;0.50;;
33270;SDS011;53180;51.344;6.152;2023-03-13T12:01:10;1.05;;;0.70;;
33270;SDS011;53180;51.344;6.152;2023-03-13T12:03:47;1.13;;;0.80;;
33270;SDS011;53180;51.344;6.152;2023-03-13T12:06:25;1.23;;;0.75;;
33270;SDS011;53180;51.344;6.152;2023-03-13T12:08:59;1.15;;;0.50;;
33270;SDS011;53180;51.344;6.152;2023-03-13T12:11:35;0.22;;;0.22;;
33270;SDS011;53180;51.344;6.152;2023-03-13T12:14:10;0.95;;;0.60;;
33270;SDS011;53180;51.344;6.152;2023-03-13T12:16:45;1.00;;;0.60;;
33270;SDS011;53180;51.344;6.152;2023-03-13T12:19:21;2.35;;;0.40;;
33270;SDS011;53180;51.344;6.152;2023-03-13T12:21:56;2.17;;;0.50;;
33270;SDS011;53180;51.344;6.152;2023-03-13T12:24:34;0.40;;;0.40;;
33270;SDS011;53180;51.344;6.152;2023-03-13T12:27:09;1.02;;;0.68;;
33270;SDS011;53180;51.344;6.152;2023-03-13T12:29:44;0.43;;;0.35;;
33270;SDS011;53180;51.344;6.152;2023-03-13T12:32:22;0.40;;;0.40;;
33270;SDS011;53180;51.344;6.152;2023-03-13T12:34:59;0.82;;;0.65;;
33270;SDS011;53180;51.344;6.152;2023-03-13T12:37:37;1.00;;;0.47;;
33270;SDS011;53180;51.344;6.152;2023-03-13T12:40:15;0.65;;;0.52;;
33270;SDS011;53180;51.344;6.152;2023-03-13T12:42:52;0.43;;;0.35;;
33270;SDS011;53180;51.344;6.152;2023-03-13T12:45:24;0.80;;;0.60;;
33270;SDS011;53180;51.344;6.152;2023-03-13T12:48:04;0.77;;;0.50;;
33270;SDS011;53180;51.344;6.152;2023-03-13T12:50:54;1.92;;;0.50;;
33270;SDS011;53180;51.344;6.152;2023-03-13T12:53:56;0.45;;;0.40;;
33270;SDS011;53180;51.344;6.152;2023-03-13T12:56:53;0.40;;;0.40;;
33270;SDS011;53180;51.344;6.152;2023-03-13T12:59:41;5.38;;;0.50;;
33270;SDS011;53180;51.344;6.152;2023-03-13T13:02:14;0.30;;;0.30;;
33270;SDS011;53180;51.344;6.152;2023-03-13T13:04:45;0.30;;;0.30;;
33270;SDS011;53180;51.344;6.152;2023-03-13T13:07:19;0.57;;;0.50;;
33270;SDS011;53180;51.344;6.152;2023-03-13T13:09:59;1.17;;;0.43;;
33270;SDS011;53180;51.344;6.152;2023-03-13T13:12:42;0.30;;;0.30;;
33270;SDS011;53180;51.344;6.152;2023-03-13T13:15:16;0.50;;;0.50;;
33270;SDS011;53180;51.344;6.152;2023-03-13T13:17:56;1.60;;;0.30;;
33270;SDS011;53180;51.344;6.152;2023-03-13T13:20:33;0.25;;;0.25;;
33270;SDS011;53180;51.344;6.152;2023-03-13T13:32:27;0.50;;;0.30;;
33270;SDS011;53180;51.344;6.152;2023-03-13T13:35:22;0.40;;;0.30;;
33270;SDS011;53180;51.344;6.152;2023-03-13T13:44:23;0.50;;;0.32;;
33270;SDS011;53180;51.344;6.152;2023-03-13T13:46:54;0.45;;;0.40;;
33270;SDS011;53180;51.344;6.152;2023-03-13T13:58:17;0.50;;;0.43;;
33270;SDS011;53180;51.344;6.152;2023-03-13T14:00:51;0.30;;;0.30;;
33270;SDS011;53180;51.344;6.152;2023-03-13T14:03:23;0.65;;;0.40;;
33270;SDS011;53180;51.344;6.152;2023-03-13T14:08:26;0.63;;;0.40;;
33270;SDS011;53180;51.344;6.152;2023-03-13T14:11:06;0.73;;;0.50;;
33270;SDS011;53180;51.344;6.152;2023-03-13T14:14:08;0.40;;;0.40;;
33270;SDS011;53180;51.344;6.152;2023-03-13T14:16:42;0.88;;;0.50;;
33270;SDS011;53180;51.344;6.152;2023-03-13T14:19:23;1.13;;;0.65;;
33270;SDS011;53180;51.344;6.152;2023-03-13T14:21:57;0.40;;;0.40;;
33270;SDS011;53180;51.344;6.152;2023-03-13T14:24:28;0.30;;;0.30;;
33270;SDS011;53180;51.344;6.152;2023-03-13T14:26:57;1.05;;;0.60;;
33270;SDS011;53180;51.344;6.152;2023-03-13T14:29:26;0.57;;;0.47;;
33270;SDS011;53180;51.344;6.152;2023-03-13T14:31:55;0.40;;;0.40;;
33270;SDS011;53180;51.344;6.152;2023-03-13T14:34:26;0.52;;;0.50;;
33270;SDS011;53180;51.344;6.152;2023-03-13T14:36:58;0.35;;;0.30;;
33270;SDS011;53180;51.344;6.152;2023-03-13T14:39:43;0.73;;;0.60;;
33270;SDS011;53180;51.344;6.152;2023-03-13T14:42:15;1.13;;;0.60;;
33270;SDS011;53180;51.344;6.152;2023-03-13T14:47:17;0.93;;;0.60;;
33270;SDS011;53180;51.344;6.152;2023-03-13T14:49:54;0.52;;;0.40;;
33270;SDS011;53180;51.344;6.152;2023-03-13T14:52:24;3.40;;;0.70;;
33270;SDS011;53180;51.344;6.152;2023-03-13T14:54:55;1.98;;;1.02;;
33270;SDS011;53180;51.344;6.152;2023-03-13T14:57:28;2.15;;;0.82;;
33270;SDS011;53180;51.344;6.152;2023-03-13T15:06:04;0.50;;;0.50;;
33270;SDS011;53180;51.344;6.152;2023-03-13T15:08:42;1.33;;;0.60;;
33270;SDS011;53180;51.344;6.152;2023-03-13T15:11:19;0.40;;;0.40;;
33270;SDS011;53180;51.344;6.152;2023-03-13T15:13:55;0.77;;;0.60;;
33270;SDS011;53180;51.344;6.152;2023-03-13T15:16:24;0.80;;;0.50;;
33270;SDS011;53180;51.344;6.152;2023-03-13T15:18:54;1.83;;;0.60;;
33270;SDS011;53180;51.344;6.152;2023-03-13T15:21:24;2.33;;;0.82;;
33270;SDS011;53180;51.344;6.152;2023-03-13T15:23:57;0.95;;;0.60;;
33270;SDS011;53180;51.344;6.152;2023-03-13T15:26:27;4.47;;;0.50;;
33270;SDS011;53180;51.344;6.152;2023-03-13T15:28:57;1.23;;;0.75;;
33270;SDS011;53180;51.344;6.152;2023-03-13T15:31:26;1.17;;;0.70;;
33270;SDS011;53180;51.344;6.152;2023-03-13T15:33:56;1.15;;;0.77;;
33270;SDS011;53180;51.344;6.152;2023-03-13T15:36:26;1.52;;;0.68;;
33270;SDS011;53180;51.344;6.152;2023-03-13T15:38:56;0.82;;;0.60;;
33270;SDS011;53180;51.344;6.152;2023-03-13T15:41:24;1.30;;;0.75;;
33270;SDS011;53180;51.344;6.152;2023-03-13T15:43:52;1.75;;;0.60;;
33270;SDS011;53180;51.344;6.152;2023-03-13T15:46:23;0.95;;;0.40;;
33270;SDS011;53180;51.344;6.152;2023-03-13T15:48:52;1.65;;;0.55;;
33270;SDS011;53180;51.344;6.152;2023-03-13T15:51:21;1.27;;;0.70;;
33270;SDS011;53180;51.344;6.152;2023-03-13T15:53:49;1.02;;;0.70;;
33270;SDS011;53180;51.344;6.152;2023-03-13T15:56:19;0.75;;;0.43;;
33270;SDS011;53180;51.344;6.152;2023-03-13T15:58:49;2.00;;;0.77;;
33270;SDS011;53180;51.344;6.152;2023-03-13T16:01:17;4.60;;;0.60;;
33270;SDS011;53180;51.344;6.152;2023-03-13T16:03:49;0.95;;;0.55;;
33270;SDS011;53180;51.344;6.152;2023-03-13T16:06:18;0.82;;;0.50;;
33270;SDS011;53180;51.344;6.152;2023-03-13T16:08:55;2.17;;;0.52;;
33270;SDS011;53180;51.344;6.152;2023-03-13T16:11:25;1.23;;;0.60;;
33270;SDS011;53180;51.344;6.152;2023-03-13T16:13:54;2.95;;;0.60;;
33270;SDS011;53180;51.344;6.152;2023-03-13T16:16:24;1.70;;;0.68;;